»·PEaware :: N1121L KHQM-S23

N1121L :: KHQM-S23

FLIGHT INFORMATION

Flight Status: Arrived
Operator: Privately registered:
United States
More flights under this callsign
Pilot: Heberto L. (27891)
Aircraft: SOCATA TBM-900
(TBM9)
More flights by this aircraft type
Origin: KHQM Bowerman
United States
Destination: S23 Ione Mun
United States
More flights between these airports :: More routes between these airports
Route:
File this flight plan on PilotEdge
Remarks: ABC Washington #8
Altitude:
(Current/Filed)
13,500ft
Speed:
(Current/Filed)
220kts
Departed: 14-May-20 05:56 PM
Arrived: 14-May-20 07:13 PM
Distance/Time
Traveled:
283nm/1:16
Distance/Time
To Go:
Arrived

Flight Plot

Page will automatically refresh every two minutes.

Flight plan parsing failed; only flown route is shown


Map Options




Map Legend


Flown Route
Filed Route
Departure Airport
Arrival Airport
Navaid (VOR, NDB)
Fix

Horizontal Profiles

Position Reports

Time Latitude Longitude Heading Altitude Ground
Speed
14-May-20 17:39 46.972585 -123.933843 79 17ft 17kts
14-May-20 17:40 46.973385 -123.930468 172 17ft 0kts
14-May-20 17:41 46.973386 -123.930468 171 17ft 0kts
14-May-20 17:42 46.973386 -123.930468 171 17ft 0kts
14-May-20 17:43 46.973386 -123.930468 171 17ft 0kts
14-May-20 17:44 46.973386 -123.930468 171 17ft 0kts
14-May-20 17:45 46.973386 -123.930468 171 17ft 0kts
14-May-20 17:46 46.973386 -123.930468 171 17ft 0kts
14-May-20 17:47 46.973386 -123.930468 171 17ft 0kts
14-May-20 17:48 46.973386 -123.930468 171 17ft 0kts
14-May-20 17:49 46.973386 -123.930468 171 17ft 0kts
14-May-20 17:50 46.973386 -123.930468 171 17ft 0kts
14-May-20 17:51 46.973386 -123.930468 171 17ft 0kts
14-May-20 17:52 46.973386 -123.930468 171 17ft 0kts
14-May-20 17:53 46.973385 -123.930468 171 17ft 0kts
14-May-20 17:54 46.973229 -123.928472 77 17ft 9kts
14-May-20 17:55 46.971975 -123.930158 259 17ft 69kts
14-May-20 17:56 46.966160 -123.984095 261 1241ft 159kts
14-May-20 17:57 46.992315 -124.020715 7 2973ft 183kts
14-May-20 17:58 47.012325 -123.955002 79 4502ft 197kts
14-May-20 17:59 47.017864 -123.881500 89 6981ft 178kts
14-May-20 18:00 47.013235 -123.808915 103 8978ft 181kts
14-May-20 18:01 47.015620 -123.735297 74 10903ft 189kts
14-May-20 18:02 47.033741 -123.651376 73 11563ft 247kts
14-May-20 18:04 47.055716 -123.550288 73 11496ft 268kts
14-May-20 18:05 47.078699 -123.444012 73 11501ft 275kts
14-May-20 18:06 47.101407 -123.338452 73 11494ft 275kts
14-May-20 18:07 47.124836 -123.228982 73 11144ft 277kts
14-May-20 18:08 47.148220 -123.127217 70 11519ft 264kts
14-May-20 18:09 47.174495 -123.024569 70 11531ft 270kts
14-May-20 18:10 47.199268 -122.928327 70 13073ft 232kts
14-May-20 18:11 47.210845 -122.839143 83 14912ft 220kts
14-May-20 18:12 47.226947 -122.745718 74 15530ft 259kts
14-May-20 18:13 47.248837 -122.639633 74 15472ft 277kts
14-May-20 18:14 47.271573 -122.529642 74 15464ft 282kts
14-May-20 18:15 47.294451 -122.418377 74 15463ft 283kts
14-May-20 18:16 47.317082 -122.307649 74 15463ft 283kts
14-May-20 18:17 47.339745 -122.196227 74 15463ft 283kts
14-May-20 18:18 47.362346 -122.084460 74 15460ft 283kts
14-May-20 18:18 47.380374 -121.994900 74 16298ft 259kts
14-May-20 18:20 47.403575 -121.878837 74 17469ft 259kts
14-May-20 18:21 47.424711 -121.772650 74 17469ft 277kts
14-May-20 18:22 47.446647 -121.661825 74 17457ft 281kts
14-May-20 18:22 47.464970 -121.568735 74 17457ft 285kts
14-May-20 18:23 47.487115 -121.455638 74 17455ft 286kts
14-May-20 18:24 47.508837 -121.344039 75 17454ft 286kts
14-May-20 18:25 47.530847 -121.230293 75 17454ft 286kts
14-May-20 18:26 47.552632 -121.117040 75 17442ft 286kts
14-May-20 18:27 47.574299 -121.003724 75 17421ft 285kts
14-May-20 18:28 47.595857 -120.890288 75 17408ft 284kts
14-May-20 18:29 47.617160 -120.777567 75 17409ft 283kts
14-May-20 18:30 47.638325 -120.664842 75 17408ft 282kts
14-May-20 18:31 47.659309 -120.552478 75 17322ft 284kts
14-May-20 18:32 47.681090 -120.434993 75 16279ft 301kts
14-May-20 18:33 47.703029 -120.315995 75 15148ft 298kts
14-May-20 18:34 47.725373 -120.193896 75 13356ft 308kts
14-May-20 18:35 47.746724 -120.076581 74 12612ft 300kts
14-May-20 18:36 47.768750 -119.954854 74 11468ft 288kts
14-May-20 18:37 47.788774 -119.843322 74 11437ft 275kts
14-May-20 18:38 47.808485 -119.732899 74 11420ft 275kts
14-May-20 18:39 47.828064 -119.622542 75 11414ft 275kts
14-May-20 18:40 47.847525 -119.512164 75 11417ft 275kts
14-May-20 18:41 47.866888 -119.401667 75 11421ft 274kts
14-May-20 18:42 47.885990 -119.291979 76 11423ft 274kts
14-May-20 18:43 47.905042 -119.181927 76 11424ft 274kts
14-May-20 18:44 47.924859 -119.073004 66 11398ft 275kts
14-May-20 18:45 47.956167 -118.969272 66 11427ft 274kts
14-May-20 18:46 47.987233 -118.865338 67 11432ft 273kts
14-May-20 18:47 48.018148 -118.761388 67 11427ft 272kts
14-May-20 18:48 48.048716 -118.658183 67 11425ft 271kts
14-May-20 18:49 48.079193 -118.554832 68 11430ft 271kts
14-May-20 18:50 48.108886 -118.453732 68 11419ft 271kts
14-May-20 18:51 48.138420 -118.352896 68 11455ft 242kts
14-May-20 18:52 48.163660 -118.266224 70 11402ft 214kts
14-May-20 18:53 48.186810 -118.186444 70 11418ft 207kts
14-May-20 18:54 48.209704 -118.107343 70 11426ft 205kts
14-May-20 18:55 48.232423 -118.028586 70 11423ft 205kts
14-May-20 18:56 48.255043 -117.949919 70 11429ft 205kts
14-May-20 18:57 48.277652 -117.871033 70 11426ft 205kts
14-May-20 18:58 48.300294 -117.791768 70 11432ft 205kts
14-May-20 18:59 48.340842 -117.745376 356 11509ft 206kts
14-May-20 19:00 48.398531 -117.750663 357 11413ft 201kts
14-May-20 19:01 48.454440 -117.755480 357 11395ft 199kts
14-May-20 19:02 48.519762 -117.761073 354 9116ft 256kts
14-May-20 19:03 48.586834 -117.766942 354 8378ft 213kts
14-May-20 19:04 48.634805 -117.732690 72 7662ft 218kts
14-May-20 19:05 48.654548 -117.646375 70 7407ft 217kts
14-May-20 19:06 48.675338 -117.553158 75 6151ft 249kts
14-May-20 19:07 48.683744 -117.454564 90 4725ft 220kts
14-May-20 19:08 48.714682 -117.414193 341 3357ft 166kts
14-May-20 19:09 48.703345 -117.429985 146 3886ft 163kts
14-May-20 19:10 48.670852 -117.396082 62 3596ft 129kts
14-May-20 19:11 48.699843 -117.410214 346 2193ft 103kts
14-May-20 19:12 48.713575 -117.414802 14 2114ft 12kts
14-May-20 19:13 48.713477 -117.413582 75 2114ft 0kts
14-May-20 19:14 48.713477 -117.413582 75 2114ft 0kts
14-May-20 19:15 48.713477 -117.413582 75 2114ft 0kts
14-May-20 19:16 48.713477 -117.413582 75 2114ft 0kts
14-May-20 19:17 48.713477 -117.413582 75 2114ft 0kts
14-May-20 19:18 48.713477 -117.413582 75 2114ft 0kts
14-May-20 19:19 48.713477 -117.413582 75 2114ft 0kts
14-May-20 19:20 48.713477 -117.413582 75 2114ft 0kts
14-May-20 19:21 48.713477 -117.413582 75 2114ft 0kts
14-May-20 19:22 48.713477 -117.413582 75 2114ft 0kts
14-May-20 19:23 48.713477 -117.413582 75 2114ft 0kts
14-May-20 19:24 48.713477 -117.413582 75 2114ft 0kts
14-May-20 19:25 48.713477 -117.413582 75 2114ft 0kts
14-May-20 19:26 48.713477 -117.413582 75 2114ft 0kts

Navigation Log

Ident Type
Flight plan parsing failed, navigation log unavailable